CYOC

Old Crow Airport

Old Crow, , Canada
METAR CYOC 172100Z VRB02KT 6SM BR BKN007 M27/M30 A3063 RMK ST7 SLP416
Observed Flight Rules
Feb-17 @ 21:00 UTC (33 minutes ago) Instrument Flight Rules
Wind Visibility Clouds Conditions
Variable at 2 knots 6 miles
  • Broken at 700' AGL
  • Mist
Temperatures Readings
Current -27°C / -17°F
Dewpoint -30°C / -22°F
Humidity 76%
Altimeter 30.63" Hg
Pressure 1041.6 hPa
Elevation 251
METAR CYOC 172100Z VRB02KT 6SM BR BKN007 M27/M30 A3063 RMK ST7 SLP416
Observed Flight Rules
Feb-17 @ 21:00 UTC
(33 minutes ago)
IFR
Wind Visibility
Variable at 2 knots 6 miles
Clouds
  • Broken at 700' AGL
Conditions
  • Mist
Temperature Dewpoint
-27°C / -17°F -30°C / -22°F
Humidity Altimeter Pressure
76% 30.63" Hg 1041.6 hPa